createdAt,value
2022-12-03T00:00:39.157Z,30.53
2022-12-03T00:04:40.483Z,31.20
2022-12-03T00:08:41.734Z,33.23
2022-12-03T00:12:42.931Z,31.20
2022-12-03T00:16:44.001Z,24.73
2022-12-03T00:20:46.433Z,30.87
2022-12-03T00:24:47.500Z,27.77
2022-12-03T00:28:48.902Z,25.27
2022-12-03T00:32:50.388Z,22.93
2022-12-03T00:36:51.771Z,24.33
2022-12-03T00:40:53.043Z,26.17
2022-12-03T00:44:54.503Z,31.23
2022-12-03T00:48:55.799Z,27.20
2022-12-03T00:52:56.867Z,23.97
2022-12-03T00:56:58.231Z,22.30
2022-12-03T01:00:59.369Z,23.60
2022-12-03T01:05:01.151Z,19.37
2022-12-03T01:09:02.812Z,20.13
2022-12-03T01:13:03.930Z,21.80
2022-12-03T01:17:06.157Z,22.57
2022-12-03T01:21:07.432Z,19.17
2022-12-03T01:25:09.790Z,19.27
2022-12-03T01:29:11.048Z,14.20
2022-12-03T01:33:12.252Z,19.47
2022-12-03T01:37:14.185Z,18.20
2022-12-03T01:41:17.736Z,19.40
2022-12-03T01:45:22.255Z,22.03
2022-12-03T01:49:29.864Z,20.43
2022-12-03T01:53:30.958Z,16.50
2022-12-03T01:57:35.851Z,21.13
2022-12-03T02:01:37.090Z,18.57
2022-12-03T02:05:38.629Z,17.87
2022-12-03T02:09:39.948Z,23.25
2022-12-03T02:13:42.100Z,18.83
2022-12-03T02:17:43.971Z,19.73
2022-12-03T02:21:52.116Z,18.40
2022-12-03T02:25:53.545Z,17.07
2022-12-03T02:29:55.380Z,16.40
2022-12-03T02:33:56.650Z,13.40
2022-12-03T02:38:13.864Z,16.63
2022-12-03T02:42:34.216Z,17.87
2022-12-03T02:46:35.731Z,18.37
2022-12-03T02:50:43.384Z,15.37
2022-12-03T02:54:44.855Z,16.93
2022-12-03T02:58:48.983Z,17.13
2022-12-03T03:02:50.431Z,13.73
2022-12-03T03:06:51.999Z,17.47
2022-12-03T03:10:54.282Z,14.03
2022-12-03T03:14:55.904Z,14.27
2022-12-03T03:18:57.213Z,17.27
2022-12-03T03:23:13.113Z,19.43
2022-12-03T03:27:14.162Z,15.17
2022-12-03T03:31:18.610Z,19.10
2022-12-03T03:35:20.200Z,18.60
2022-12-03T03:39:21.802Z,17.23
2022-12-03T03:43:24.509Z,18.00
2022-12-03T03:47:26.085Z,19.20
2022-12-03T03:51:27.305Z,19.80
2022-12-03T03:55:28.706Z,16.03
2022-12-03T03:59:29.991Z,19.10
2022-12-03T04:03:31.311Z,20.40
2022-12-03T04:07:32.510Z,21.97
2022-12-03T04:11:52.398Z,20.73
2022-12-03T04:15:53.512Z,20.60
2022-12-03T04:19:54.812Z,16.10
2022-12-03T04:23:56.007Z,19.67
2022-12-03T04:28:15.721Z,20.60
2022-12-03T04:32:35.358Z,20.10
2022-12-03T04:36:36.554Z,18.10
2022-12-03T04:40:56.757Z,19.90
2022-12-03T04:44:58.018Z,19.83
2022-12-03T04:48:59.216Z,18.17
2022-12-03T04:53:00.225Z,16.50
2022-12-03T04:57:02.297Z,17.43
2022-12-03T05:01:03.385Z,20.27
2022-12-03T05:05:05.285Z,17.00
2022-12-03T05:09:06.363Z,22.10
2022-12-03T05:13:07.617Z,16.13
2022-12-03T05:17:08.704Z,20.33
2022-12-03T05:21:09.992Z,16.63
2022-12-03T05:25:11.146Z,21.80
2022-12-03T05:29:12.335Z,16.73
2022-12-03T05:33:13.694Z,14.87
2022-12-03T05:37:14.834Z,14.37
2022-12-03T05:41:34.456Z,18.17
2022-12-03T05:45:38.712Z,17.10
2022-12-03T05:49:40.045Z,16.37
2022-12-03T05:53:41.273Z,20.63
2022-12-03T05:57:42.883Z,22.07
2022-12-03T06:01:44.120Z,20.03
2022-12-03T06:05:45.305Z,18.97
2022-12-03T06:09:46.508Z,22.43
2022-12-03T06:13:47.808Z,21.47
2022-12-03T06:17:49.592Z,21.23
2022-12-03T06:21:50.672Z,21.33
2022-12-03T06:25:52.076Z,20.23
2022-12-03T06:29:53.221Z,20.83
2022-12-03T06:33:54.732Z,21.43
2022-12-03T06:37:56.275Z,23.70
2022-12-03T06:41:57.716Z,23.70
2022-12-03T06:45:58.902Z,18.97
2022-12-03T06:50:00.152Z,22.80
2022-12-03T06:54:02.339Z,19.27
2022-12-03T06:58:03.575Z,24.30
2022-12-03T07:02:05.182Z,22.77
2022-12-03T07:06:08.294Z,23.27
2022-12-03T07:10:10.252Z,18.73
2022-12-03T07:14:11.668Z,25.23
2022-12-03T07:18:12.955Z,24.27
2022-12-03T07:22:14.126Z,24.67
2022-12-03T07:26:15.263Z,25.40
2022-12-03T07:30:17.271Z,26.37
2022-12-03T07:34:18.569Z,25.97
2022-12-03T07:38:19.644Z,23.60
2022-12-03T07:42:20.917Z,24.67
2022-12-03T07:46:22.144Z,26.83
2022-12-03T07:50:23.663Z,27.57
2022-12-03T07:54:25.500Z,27.10
2022-12-03T07:58:27.011Z,29.70
2022-12-03T08:02:28.353Z,28.33
2022-12-03T08:06:29.575Z,27.47
2022-12-03T08:10:30.770Z,27.83
2022-12-03T08:14:31.881Z,26.80
2022-12-03T08:18:33.174Z,28.00
2022-12-03T08:22:34.404Z,28.60
2022-12-03T08:26:35.691Z,26.53
2022-12-03T08:30:37.220Z,29.53
2022-12-03T08:34:41.383Z,32.63
2022-12-03T08:38:46.525Z,30.27
2022-12-03T08:42:47.951Z,25.53
2022-12-03T08:47:08.179Z,27.80
2022-12-03T08:51:26.702Z,33.70
2022-12-03T08:55:36.567Z,27.53
2022-12-03T08:59:40.304Z,31.53
2022-12-03T09:03:50.790Z,29.20
2022-12-03T09:07:52.260Z,31.00
2022-12-03T09:11:54.346Z,30.60
2022-12-03T09:15:55.404Z,33.47
2022-12-03T09:19:56.542Z,32.80
2022-12-03T09:23:57.707Z,32.07
2022-12-03T09:27:58.906Z,34.03
2022-12-03T09:32:00.172Z,32.77
2022-12-03T09:36:01.454Z,31.67
2022-12-03T09:40:03.259Z,30.43
2022-12-03T09:44:05.685Z,37.23
2022-12-03T09:48:07.411Z,33.30
2022-12-03T09:52:12.302Z,37.20
2022-12-03T09:56:17.370Z,33.77
2022-12-03T10:00:23.139Z,33.00
2022-12-03T10:04:24.639Z,29.03
2022-12-03T10:08:32.016Z,33.73
2022-12-03T10:12:31.210Z,34.53
2022-12-03T10:16:33.212Z,33.13
2022-12-03T10:20:34.697Z,35.30
2022-12-03T10:24:37.219Z,35.00
2022-12-03T10:28:41.843Z,27.57
2022-12-03T10:32:46.266Z,37.87
2022-12-03T10:36:49.374Z,36.27
2022-12-03T10:40:53.235Z,35.93
2022-12-03T10:45:17.289Z,39.23
2022-12-03T10:49:19.352Z,33.10
2022-12-03T10:53:30.183Z,36.67
2022-12-03T10:57:31.676Z,32.20
2022-12-03T11:01:33.249Z,33.57
2022-12-03T11:05:34.357Z,33.07
2022-12-03T11:09:35.810Z,34.90
2022-12-03T11:13:40.876Z,35.57
2022-12-03T11:17:50.927Z,28.23
2022-12-03T11:22:11.014Z,34.17
2022-12-03T11:26:30.468Z,35.70
2022-12-03T11:30:57.980Z,35.17
2022-12-03T11:34:59.315Z,32.17
2022-12-03T11:39:00.466Z,31.13
2022-12-03T11:43:01.735Z,27.70
2022-12-03T11:47:06.916Z,32.90
2022-12-03T11:51:16.807Z,29.37
2022-12-03T11:55:37.884Z,27.53
2022-12-03T11:59:42.776Z,28.57
2022-12-03T12:03:49.559Z,29.30
2022-12-03T12:07:52.112Z,35.23
2022-12-03T12:11:53.224Z,35.87
2022-12-03T12:15:55.023Z,30.27
2022-12-03T12:20:15.455Z,37.47
2022-12-03T12:24:32.829Z,38.47
2022-12-03T12:28:34.155Z,35.80
2022-12-03T12:32:51.502Z,35.20
2022-12-03T12:36:56.080Z,35.13
2022-12-03T12:40:57.316Z,35.27
2022-12-03T12:45:02.185Z,30.33
2022-12-03T12:49:14.462Z,34.07
2022-12-03T12:53:24.292Z,28.90
2022-12-03T12:57:25.341Z,32.17
2022-12-03T13:01:29.969Z,36.73
2022-12-03T13:05:43.671Z,36.97
2022-12-03T13:09:44.938Z,29.70
2022-12-03T13:13:46.284Z,32.90
2022-12-03T13:17:47.341Z,35.13
2022-12-03T13:21:49.800Z,40.37
2022-12-03T13:26:01.766Z,34.23
2022-12-03T13:29:58.379Z,35.03
2022-12-03T13:34:01.460Z,33.13
2022-12-03T13:38:13.162Z,35.37
2022-12-03T13:42:38.634Z,37.73
2022-12-03T13:46:39.855Z,35.83
2022-12-03T13:50:45.412Z,37.97
2022-12-03T13:54:49.530Z,31.70
2022-12-03T13:58:50.894Z,32.67
2022-12-03T14:02:52.133Z,29.23
2022-12-03T14:06:53.414Z,31.20
2022-12-03T14:11:00.227Z,28.73
2022-12-03T14:14:57.647Z,28.50
2022-12-03T14:18:58.724Z,33.63
2022-12-03T14:23:00.085Z,36.40
2022-12-03T14:27:01.520Z,31.50
2022-12-03T14:31:05.036Z,33.77
2022-12-03T14:35:10.087Z,34.17
2022-12-03T14:39:10.423Z,33.23
2022-12-03T14:43:11.577Z,28.07
2022-12-03T14:47:14.374Z,34.90
2022-12-03T14:51:15.720Z,31.27
2022-12-03T14:55:17.003Z,34.10
2022-12-03T14:59:20.718Z,31.43
2022-12-03T15:03:21.972Z,34.37
2022-12-03T15:07:23.400Z,27.93
2022-12-03T15:11:24.674Z,29.53
2022-12-03T15:15:26.109Z,31.73
2022-12-03T15:19:27.075Z,32.37
2022-12-03T15:23:28.044Z,36.70
2022-12-03T15:27:29.185Z,33.20
2022-12-03T15:31:30.251Z,28.50
2022-12-03T15:35:31.947Z,23.53
2022-12-03T15:39:34.894Z,34.03
2022-12-03T15:43:35.867Z,39.55
2022-12-03T15:47:36.977Z,35.10
2022-12-03T15:51:38.019Z,28.07
2022-12-03T15:55:39.051Z,33.50
2022-12-03T15:59:40.184Z,29.00
2022-12-03T16:03:41.325Z,37.00
2022-12-03T16:07:42.399Z,32.13
2022-12-03T16:11:43.456Z,31.67
2022-12-03T16:15:44.586Z,32.70
2022-12-03T16:19:46.024Z,42.67
2022-12-03T16:23:47.224Z,31.97
2022-12-03T16:27:48.339Z,31.03
2022-12-03T16:31:49.415Z,42.70
2022-12-03T16:35:50.455Z,29.43
2022-12-03T16:39:51.715Z,41.10
2022-12-03T16:43:52.999Z,43.20
2022-12-03T16:47:54.016Z,34.07
2022-12-03T16:51:55.047Z,41.25
2022-12-03T16:55:56.059Z,28.50
2022-12-03T16:59:57.106Z,31.70
2022-12-03T17:03:58.116Z,42.10
2022-12-03T17:07:59.230Z,34.67
2022-12-03T17:12:00.312Z,31.07
2022-12-03T17:16:01.319Z,27.67
2022-12-03T17:20:04.453Z,31.57
2022-12-03T17:24:05.983Z,26.27
2022-12-03T17:28:07.185Z,32.17
2022-12-03T17:32:08.309Z,37.17
2022-12-03T17:36:10.404Z,33.77
2022-12-03T17:40:13.398Z,34.57
2022-12-03T17:44:19.426Z,30.70
2022-12-03T17:48:17.248Z,33.40
2022-12-03T17:52:18.401Z,31.33
2022-12-03T17:56:19.577Z,30.87
2022-12-03T18:00:20.890Z,35.37
2022-12-03T18:04:21.965Z,29.67
2022-12-03T18:08:23.374Z,37.73
2022-12-03T18:12:24.836Z,34.07
2022-12-03T18:16:26.015Z,35.87
2022-12-03T18:20:27.410Z,31.67
2022-12-03T18:24:29.877Z,35.63
2022-12-03T18:28:31.216Z,35.60
2022-12-03T18:32:32.674Z,36.10
2022-12-03T18:36:35.695Z,33.07
2022-12-03T18:40:38.801Z,33.20
2022-12-03T18:44:42.736Z,43.20
2022-12-03T18:48:45.303Z,33.83
2022-12-03T18:52:46.487Z,24.20
2022-12-03T18:56:47.558Z,32.23
2022-12-03T19:00:48.904Z,30.03
2022-12-03T19:04:49.964Z,33.23
2022-12-03T19:08:53.054Z,34.70
2022-12-03T19:12:54.030Z,37.53
2022-12-03T19:16:55.313Z,35.57
2022-12-03T19:20:56.486Z,29.13
2022-12-03T19:24:57.617Z,30.67
2022-12-03T19:28:59.122Z,29.53
2022-12-03T19:33:00.673Z,38.53
2022-12-03T19:37:01.708Z,34.27
2022-12-03T19:41:08.405Z,33.97
2022-12-03T19:45:10.480Z,44.90
2022-12-03T19:49:11.942Z,38.80
2022-12-03T19:53:12.985Z,34.37
2022-12-03T19:57:18.061Z,32.27
2022-12-03T20:01:19.639Z,37.85
2022-12-03T20:05:20.716Z,36.00
2022-12-03T20:09:22.051Z,34.60
2022-12-03T20:13:23.191Z,36.37
2022-12-03T20:17:24.201Z,32.97
2022-12-03T20:21:26.199Z,32.43
2022-12-03T20:25:27.232Z,31.87
2022-12-03T20:29:28.256Z,32.30
2022-12-03T20:33:29.942Z,31.43
2022-12-03T20:37:31.335Z,32.57
2022-12-03T20:41:34.870Z,32.53
2022-12-03T20:45:36.075Z,33.03
2022-12-03T20:49:38.641Z,37.33
2022-12-03T20:53:41.429Z,33.17
2022-12-03T20:57:42.532Z,44.30
2022-12-03T21:01:44.419Z,35.30
2022-12-03T21:05:45.485Z,34.93
2022-12-03T21:09:46.724Z,34.60
2022-12-03T21:13:48.002Z,30.77
2022-12-03T21:17:49.619Z,34.13
2022-12-03T21:21:50.814Z,30.87
2022-12-03T21:25:51.779Z,31.83
2022-12-03T21:29:53.227Z,33.97
2022-12-03T21:33:55.780Z,29.80
2022-12-03T21:37:56.921Z,32.73
2022-12-03T21:42:19.223Z,33.47
2022-12-03T21:47:08.250Z,32.43
2022-12-03T21:50:10.809Z,28.63
2022-12-03T21:54:11.778Z,33.27
2022-12-03T21:58:12.931Z,34.40
2022-12-03T22:02:14.248Z,31.60
2022-12-03T22:06:16.017Z,30.30
2022-12-03T22:10:17.422Z,31.87
2022-12-03T22:14:20.085Z,33.93
2022-12-03T22:18:21.098Z,31.33
2022-12-03T22:22:22.081Z,32.50
2022-12-03T22:26:23.160Z,29.40
2022-12-03T22:30:24.169Z,28.00
2022-12-03T22:34:25.252Z,33.10
2022-12-03T22:38:28.319Z,30.97
2022-12-03T22:42:29.353Z,28.67
2022-12-03T22:46:33.591Z,29.20
2022-12-03T22:50:43.887Z,30.47
2022-12-03T22:54:45.390Z,27.97
2022-12-03T22:58:46.440Z,31.33
2022-12-03T23:02:47.664Z,30.50
2022-12-03T23:06:48.934Z,28.93
2022-12-03T23:10:52.186Z,35.55
2022-12-03T23:14:54.518Z,32.40
2022-12-03T23:18:58.507Z,28.03
2022-12-03T23:22:59.561Z,26.43
2022-12-03T23:27:00.867Z,28.80
2022-12-03T23:31:03.347Z,28.10
2022-12-03T23:35:05.609Z,30.83
2022-12-03T23:39:06.786Z,31.67
2022-12-03T23:43:07.823Z,30.23
2022-12-03T23:47:11.665Z,37.83
2022-12-03T23:51:16.005Z,27.83
2022-12-03T23:55:17.316Z,29.47
2022-12-03T23:59:18.555Z,28.83
